sensor_id;sensor_type;location;lat;lon;timestamp;P1;durP1;ratioP1;P2;durP2;ratioP2
10389;SDS011;5241;47.830;12.972;2023-05-07T00:01:50;7.33;;;2.80;;
10389;SDS011;5241;47.830;12.972;2023-05-07T00:04:16;4.70;;;2.80;;
10389;SDS011;5241;47.830;12.972;2023-05-07T00:06:42;3.93;;;2.70;;
10389;SDS011;5241;47.830;12.972;2023-05-07T00:09:07;2.87;;;2.60;;
10389;SDS011;5241;47.830;12.972;2023-05-07T00:11:33;3.87;;;3.20;;
10389;SDS011;5241;47.830;12.972;2023-05-07T00:13:59;3.90;;;2.70;;
10389;SDS011;5241;47.830;12.972;2023-05-07T00:16:25;3.00;;;2.70;;
10389;SDS011;5241;47.830;12.972;2023-05-07T00:18:50;3.20;;;2.90;;
10389;SDS011;5241;47.830;12.972;2023-05-07T00:21:17;3.27;;;2.40;;
10389;SDS011;5241;47.830;12.972;2023-05-07T00:23:42;3.10;;;2.80;;
10389;SDS011;5241;47.830;12.972;2023-05-07T00:26:08;2.87;;;2.50;;
10389;SDS011;5241;47.830;12.972;2023-05-07T00:28:33;4.23;;;3.07;;
10389;SDS011;5241;47.830;12.972;2023-05-07T00:30:59;4.27;;;2.60;;
10389;SDS011;5241;47.830;12.972;2023-05-07T00:33:24;3.97;;;2.93;;
10389;SDS011;5241;47.830;12.972;2023-05-07T00:35:51;2.87;;;2.53;;
10389;SDS011;5241;47.830;12.972;2023-05-07T00:38:19;3.10;;;2.87;;
10389;SDS011;5241;47.830;12.972;2023-05-07T00:40:44;4.97;;;3.37;;
10389;SDS011;5241;47.830;12.972;2023-05-07T00:43:10;8.73;;;3.03;;
10389;SDS011;5241;47.830;12.972;2023-05-07T00:45:36;3.27;;;2.87;;
10389;SDS011;5241;47.830;12.972;2023-05-07T00:48:01;3.40;;;2.90;;
10389;SDS011;5241;47.830;12.972;2023-05-07T00:50:28;4.17;;;3.53;;
10389;SDS011;5241;47.830;12.972;2023-05-07T00:52:54;6.53;;;3.30;;
10389;SDS011;5241;47.830;12.972;2023-05-07T00:55:21;3.87;;;2.83;;
10389;SDS011;5241;47.830;12.972;2023-05-07T00:57:47;4.03;;;3.40;;
10389;SDS011;5241;47.830;12.972;2023-05-07T01:00:14;4.43;;;3.37;;
10389;SDS011;5241;47.830;12.972;2023-05-07T01:02:40;4.40;;;3.20;;
10389;SDS011;5241;47.830;12.972;2023-05-07T01:05:07;4.67;;;3.37;;
10389;SDS011;5241;47.830;12.972;2023-05-07T01:07:35;3.27;;;2.93;;
10389;SDS011;5241;47.830;12.972;2023-05-07T01:10:02;3.30;;;2.80;;
10389;SDS011;5241;47.830;12.972;2023-05-07T01:12:29;4.00;;;3.13;;
10389;SDS011;5241;47.830;12.972;2023-05-07T01:14:56;3.20;;;2.73;;
10389;SDS011;5241;47.830;12.972;2023-05-07T01:17:22;5.97;;;3.20;;
10389;SDS011;5241;47.830;12.972;2023-05-07T01:19:48;5.20;;;3.43;;
10389;SDS011;5241;47.830;12.972;2023-05-07T01:22:14;5.23;;;2.60;;
10389;SDS011;5241;47.830;12.972;2023-05-07T01:24:41;3.93;;;2.73;;
10389;SDS011;5241;47.830;12.972;2023-05-07T01:27:07;3.40;;;2.70;;
10389;SDS011;5241;47.830;12.972;2023-05-07T01:29:33;3.07;;;2.60;;
10389;SDS011;5241;47.830;12.972;2023-05-07T01:31:59;3.23;;;2.57;;
10389;SDS011;5241;47.830;12.972;2023-05-07T01:34:26;3.70;;;2.70;;
10389;SDS011;5241;47.830;12.972;2023-05-07T01:36:55;2.60;;;2.40;;
10389;SDS011;5241;47.830;12.972;2023-05-07T01:39:24;5.43;;;2.63;;
10389;SDS011;5241;47.830;12.972;2023-05-07T01:41:50;3.30;;;2.60;;
10389;SDS011;5241;47.830;12.972;2023-05-07T01:44:16;4.43;;;2.60;;
10389;SDS011;5241;47.830;12.972;2023-05-07T01:46:43;2.80;;;2.50;;
10389;SDS011;5241;47.830;12.972;2023-05-07T01:49:09;2.87;;;2.57;;
10389;SDS011;5241;47.830;12.972;2023-05-07T01:51:34;4.47;;;2.63;;
10389;SDS011;5241;47.830;12.972;2023-05-07T01:54:01;3.40;;;2.60;;
10389;SDS011;5241;47.830;12.972;2023-05-07T01:56:26;4.93;;;2.70;;
10389;SDS011;5241;47.830;12.972;2023-05-07T01:58:52;2.60;;;2.40;;
10389;SDS011;5241;47.830;12.972;2023-05-07T02:01:17;4.30;;;2.60;;
10389;SDS011;5241;47.830;12.972;2023-05-07T02:03:43;5.20;;;2.77;;
10389;SDS011;5241;47.830;12.972;2023-05-07T02:06:09;5.13;;;3.13;;
10389;SDS011;5241;47.830;12.972;2023-05-07T02:08:35;7.33;;;3.27;;
10389;SDS011;5241;47.830;12.972;2023-05-07T02:11:00;4.97;;;3.13;;
10389;SDS011;5241;47.830;12.972;2023-05-07T02:13:28;6.80;;;3.10;;
10389;SDS011;5241;47.830;12.972;2023-05-07T02:15:55;3.13;;;2.50;;
10389;SDS011;5241;47.830;12.972;2023-05-07T02:18:21;3.70;;;2.90;;
10389;SDS011;5241;47.830;12.972;2023-05-07T02:20:46;5.50;;;3.03;;
10389;SDS011;5241;47.830;12.972;2023-05-07T02:23:12;3.07;;;2.77;;
10389;SDS011;5241;47.830;12.972;2023-05-07T02:25:37;5.00;;;2.63;;
10389;SDS011;5241;47.830;12.972;2023-05-07T02:28:03;3.30;;;3.00;;
10389;SDS011;5241;47.830;12.972;2023-05-07T02:30:28;3.10;;;2.70;;
10389;SDS011;5241;47.830;12.972;2023-05-07T02:32:54;3.60;;;2.93;;
10389;SDS011;5241;47.830;12.972;2023-05-07T02:35:20;3.30;;;3.00;;
10389;SDS011;5241;47.830;12.972;2023-05-07T02:37:45;3.40;;;2.80;;
10389;SDS011;5241;47.830;12.972;2023-05-07T02:40:11;3.50;;;2.67;;
10389;SDS011;5241;47.830;12.972;2023-05-07T02:42:37;3.00;;;2.60;;
10389;SDS011;5241;47.830;12.972;2023-05-07T02:45:02;2.63;;;2.43;;
10389;SDS011;5241;47.830;12.972;2023-05-07T02:47:28;3.00;;;2.57;;
10389;SDS011;5241;47.830;12.972;2023-05-07T02:49:54;3.00;;;2.80;;
10389;SDS011;5241;47.830;12.972;2023-05-07T02:52:20;3.33;;;2.60;;
10389;SDS011;5241;47.830;12.972;2023-05-07T02:54:46;3.50;;;2.43;;
10389;SDS011;5241;47.830;12.972;2023-05-07T02:57:12;3.10;;;2.20;;
10389;SDS011;5241;47.830;12.972;2023-05-07T02:59:37;2.90;;;2.60;;
10389;SDS011;5241;47.830;12.972;2023-05-07T03:02:03;2.70;;;2.50;;
10389;SDS011;5241;47.830;12.972;2023-05-07T03:04:28;3.43;;;2.60;;
10389;SDS011;5241;47.830;12.972;2023-05-07T03:06:54;2.43;;;2.23;;
10389;SDS011;5241;47.830;12.972;2023-05-07T03:09:19;2.67;;;2.43;;
10389;SDS011;5241;47.830;12.972;2023-05-07T03:11:45;3.57;;;2.43;;
10389;SDS011;5241;47.830;12.972;2023-05-07T03:14:11;5.00;;;2.70;;
10389;SDS011;5241;47.830;12.972;2023-05-07T03:16:37;2.73;;;2.30;;
10389;SDS011;5241;47.830;12.972;2023-05-07T03:19:03;4.57;;;2.40;;
10389;SDS011;5241;47.830;12.972;2023-05-07T03:21:28;2.93;;;2.43;;
10389;SDS011;5241;47.830;12.972;2023-05-07T03:23:55;5.30;;;2.87;;
10389;SDS011;5241;47.830;12.972;2023-05-07T03:26:21;4.43;;;2.60;;
10389;SDS011;5241;47.830;12.972;2023-05-07T03:28:46;2.80;;;2.60;;
10389;SDS011;5241;47.830;12.972;2023-05-07T03:31:12;3.17;;;2.30;;
10389;SDS011;5241;47.830;12.972;2023-05-07T03:33:39;4.30;;;2.57;;
10389;SDS011;5241;47.830;12.972;2023-05-07T03:36:18;3.13;;;2.40;;
10389;SDS011;5241;47.830;12.972;2023-05-07T03:38:44;2.50;;;1.97;;
10389;SDS011;5241;47.830;12.972;2023-05-07T03:41:09;3.70;;;2.73;;
10389;SDS011;5241;47.830;12.972;2023-05-07T03:43:36;2.77;;;2.47;;
10389;SDS011;5241;47.830;12.972;2023-05-07T03:46:02;2.47;;;2.27;;
10389;SDS011;5241;47.830;12.972;2023-05-07T03:48:27;3.43;;;2.93;;
10389;SDS011;5241;47.830;12.972;2023-05-07T03:50:53;2.70;;;2.17;;
10389;SDS011;5241;47.830;12.972;2023-05-07T03:53:18;5.73;;;2.73;;
10389;SDS011;5241;47.830;12.972;2023-05-07T03:55:44;2.87;;;2.30;;
10389;SDS011;5241;47.830;12.972;2023-05-07T03:58:10;1.97;;;1.87;;
10389;SDS011;5241;47.830;12.972;2023-05-07T04:00:35;3.80;;;2.17;;
10389;SDS011;5241;47.830;12.972;2023-05-07T04:03:03;2.93;;;1.83;;
10389;SDS011;5241;47.830;12.972;2023-05-07T04:05:30;2.40;;;2.20;;
10389;SDS011;5241;47.830;12.972;2023-05-07T04:07:57;2.23;;;1.90;;
10389;SDS011;5241;47.830;12.972;2023-05-07T04:10:23;3.33;;;1.90;;
10389;SDS011;5241;47.830;12.972;2023-05-07T04:12:48;2.87;;;2.27;;
10389;SDS011;5241;47.830;12.972;2023-05-07T04:15:14;3.30;;;2.03;;
10389;SDS011;5241;47.830;12.972;2023-05-07T04:17:40;4.50;;;2.30;;
10389;SDS011;5241;47.830;12.972;2023-05-07T04:20:08;2.93;;;2.00;;
10389;SDS011;5241;47.830;12.972;2023-05-07T04:22:35;4.00;;;2.00;;
10389;SDS011;5241;47.830;12.972;2023-05-07T04:25:01;2.07;;;1.97;;
10389;SDS011;5241;47.830;12.972;2023-05-07T04:27:27;2.53;;;2.00;;
10389;SDS011;5241;47.830;12.972;2023-05-07T04:29:53;2.50;;;1.80;;
10389;SDS011;5241;47.830;12.972;2023-05-07T04:32:20;3.20;;;2.33;;
10389;SDS011;5241;47.830;12.972;2023-05-07T04:34:46;3.60;;;1.83;;
10389;SDS011;5241;47.830;12.972;2023-05-07T04:37:12;1.80;;;1.70;;
10389;SDS011;5241;47.830;12.972;2023-05-07T04:39:37;1.80;;;1.67;;
10389;SDS011;5241;47.830;12.972;2023-05-07T04:42:03;3.27;;;2.40;;
10389;SDS011;5241;47.830;12.972;2023-05-07T04:44:28;2.50;;;2.30;;
10389;SDS011;5241;47.830;12.972;2023-05-07T04:46:56;2.60;;;2.03;;
10389;SDS011;5241;47.830;12.972;2023-05-07T04:49:21;1.70;;;1.60;;
10389;SDS011;5241;47.830;12.972;2023-05-07T04:51:47;3.30;;;2.40;;
10389;SDS011;5241;47.830;12.972;2023-05-07T04:54:12;2.23;;;2.00;;
10389;SDS011;5241;47.830;12.972;2023-05-07T04:56:38;2.47;;;1.90;;
10389;SDS011;5241;47.830;12.972;2023-05-07T04:59:04;2.13;;;1.80;;
10389;SDS011;5241;47.830;12.972;2023-05-07T05:01:29;1.77;;;1.63;;
10389;SDS011;5241;47.830;12.972;2023-05-07T05:03:55;1.70;;;1.60;;
10389;SDS011;5241;47.830;12.972;2023-05-07T05:06:20;3.30;;;1.93;;
10389;SDS011;5241;47.830;12.972;2023-05-07T05:08:46;2.20;;;1.93;;
10389;SDS011;5241;47.830;12.972;2023-05-07T05:11:11;2.73;;;1.80;;
10389;SDS011;5241;47.830;12.972;2023-05-07T05:13:37;2.40;;;2.10;;
10389;SDS011;5241;47.830;12.972;2023-05-07T05:16:02;2.23;;;1.80;;
10389;SDS011;5241;47.830;12.972;2023-05-07T05:18:28;2.67;;;1.70;;
10389;SDS011;5241;47.830;12.972;2023-05-07T05:20:54;2.87;;;1.83;;
10389;SDS011;5241;47.830;12.972;2023-05-07T05:23:19;2.87;;;1.90;;
10389;SDS011;5241;47.830;12.972;2023-05-07T05:25:45;3.00;;;1.60;;
10389;SDS011;5241;47.830;12.972;2023-05-07T05:28:10;2.70;;;1.60;;
10389;SDS011;5241;47.830;12.972;2023-05-07T05:30:36;2.13;;;1.97;;
10389;SDS011;5241;47.830;12.972;2023-05-07T05:33:02;3.37;;;2.80;;
10389;SDS011;5241;47.830;12.972;2023-05-07T05:35:29;4.17;;;3.33;;
10389;SDS011;5241;47.830;12.972;2023-05-07T05:37:54;3.83;;;3.27;;
10389;SDS011;5241;47.830;12.972;2023-05-07T05:40:20;3.23;;;2.30;;
10389;SDS011;5241;47.830;12.972;2023-05-07T05:42:45;2.57;;;2.33;;
10389;SDS011;5241;47.830;12.972;2023-05-07T05:45:11;3.20;;;2.07;;
10389;SDS011;5241;47.830;12.972;2023-05-07T05:47:37;3.77;;;2.03;;
10389;SDS011;5241;47.830;12.972;2023-05-07T05:50:03;2.40;;;1.93;;
10389;SDS011;5241;47.830;12.972;2023-05-07T05:52:31;1.87;;;1.60;;
10389;SDS011;5241;47.830;12.972;2023-05-07T05:54:56;1.80;;;1.70;;
10389;SDS011;5241;47.830;12.972;2023-05-07T05:57:22;2.27;;;1.60;;
10389;SDS011;5241;47.830;12.972;2023-05-07T05:59:47;3.50;;;1.63;;
10389;SDS011;5241;47.830;12.972;2023-05-07T06:02:13;2.47;;;1.90;;
10389;SDS011;5241;47.830;12.972;2023-05-07T06:04:39;2.00;;;1.37;;
10389;SDS011;5241;47.830;12.972;2023-05-07T06:07:04;2.07;;;1.87;;
10389;SDS011;5241;47.830;12.972;2023-05-07T06:09:30;2.70;;;1.50;;
10389;SDS011;5241;47.830;12.972;2023-05-07T06:11:56;2.23;;;1.57;;
10389;SDS011;5241;47.830;12.972;2023-05-07T06:14:21;2.50;;;1.80;;
10389;SDS011;5241;47.830;12.972;2023-05-07T06:16:47;2.13;;;1.40;;
10389;SDS011;5241;47.830;12.972;2023-05-07T06:19:12;2.30;;;1.60;;
10389;SDS011;5241;47.830;12.972;2023-05-07T06:21:38;3.93;;;1.60;;
10389;SDS011;5241;47.830;12.972;2023-05-07T06:24:05;2.67;;;1.63;;
10389;SDS011;5241;47.830;12.972;2023-05-07T06:26:30;2.40;;;1.30;;
10389;SDS011;5241;47.830;12.972;2023-05-07T06:28:56;1.93;;;1.27;;
10389;SDS011;5241;47.830;12.972;2023-05-07T06:31:22;2.13;;;1.47;;
10389;SDS011;5241;47.830;12.972;2023-05-07T06:33:48;2.97;;;1.47;;
10389;SDS011;5241;47.830;12.972;2023-05-07T06:36:14;1.30;;;1.20;;
10389;SDS011;5241;47.830;12.972;2023-05-07T06:38:40;3.43;;;1.40;;
10389;SDS011;5241;47.830;12.972;2023-05-07T06:41:06;3.10;;;1.30;;
10389;SDS011;5241;47.830;12.972;2023-05-07T06:43:32;2.60;;;1.20;;
10389;SDS011;5241;47.830;12.972;2023-05-07T06:45:58;2.77;;;1.27;;
10389;SDS011;5241;47.830;12.972;2023-05-07T06:48:23;1.87;;;1.20;;
10389;SDS011;5241;47.830;12.972;2023-05-07T06:50:49;1.30;;;1.20;;
10389;SDS011;5241;47.830;12.972;2023-05-07T06:53:15;1.43;;;1.33;;
10389;SDS011;5241;47.830;12.972;2023-05-07T06:55:40;1.77;;;1.50;;
10389;SDS011;5241;47.830;12.972;2023-05-07T06:58:06;1.40;;;1.30;;
10389;SDS011;5241;47.830;12.972;2023-05-07T07:00:32;1.83;;;1.30;;
10389;SDS011;5241;47.830;12.972;2023-05-07T07:02:58;3.27;;;1.50;;
10389;SDS011;5241;47.830;12.972;2023-05-07T07:05:25;2.93;;;1.60;;
10389;SDS011;5241;47.830;12.972;2023-05-07T07:07:51;3.93;;;1.77;;
10389;SDS011;5241;47.830;12.972;2023-05-07T07:10:19;1.70;;;1.40;;
10389;SDS011;5241;47.830;12.972;2023-05-07T07:12:45;2.30;;;1.27;;
10389;SDS011;5241;47.830;12.972;2023-05-07T07:15:11;1.57;;;1.30;;
10389;SDS011;5241;47.830;12.972;2023-05-07T07:17:36;1.73;;;1.40;;
10389;SDS011;5241;47.830;12.972;2023-05-07T07:20:02;2.70;;;1.40;;
10389;SDS011;5241;47.830;12.972;2023-05-07T07:22:28;1.60;;;1.50;;
10389;SDS011;5241;47.830;12.972;2023-05-07T07:24:54;3.27;;;2.00;;
10389;SDS011;5241;47.830;12.972;2023-05-07T07:27:19;2.67;;;2.03;;
10389;SDS011;5241;47.830;12.972;2023-05-07T07:29:45;2.80;;;2.00;;
10389;SDS011;5241;47.830;12.972;2023-05-07T07:32:10;4.60;;;2.20;;
10389;SDS011;5241;47.830;12.972;2023-05-07T07:34:36;2.40;;;2.13;;
10389;SDS011;5241;47.830;12.972;2023-05-07T07:37:01;2.97;;;2.13;;
10389;SDS011;5241;47.830;12.972;2023-05-07T07:39:30;2.10;;;1.90;;
10389;SDS011;5241;47.830;12.972;2023-05-07T07:41:56;4.13;;;2.43;;
10389;SDS011;5241;47.830;12.972;2023-05-07T07:44:21;2.33;;;2.10;;
10389;SDS011;5241;47.830;12.972;2023-05-07T07:46:47;2.43;;;2.23;;
10389;SDS011;5241;47.830;12.972;2023-05-07T07:49:13;2.40;;;2.20;;
10389;SDS011;5241;47.830;12.972;2023-05-07T07:51:39;2.93;;;2.40;;
10389;SDS011;5241;47.830;12.972;2023-05-07T07:54:05;2.97;;;2.67;;
10389;SDS011;5241;47.830;12.972;2023-05-07T07:56:31;5.00;;;3.20;;
10389;SDS011;5241;47.830;12.972;2023-05-07T07:58:58;2.63;;;2.43;;
10389;SDS011;5241;47.830;12.972;2023-05-07T08:01:24;3.20;;;2.00;;
10389;SDS011;5241;47.830;12.972;2023-05-07T08:03:49;5.00;;;2.40;;
10389;SDS011;5241;47.830;12.972;2023-05-07T08:06:15;2.73;;;2.53;;
10389;SDS011;5241;47.830;12.972;2023-05-07T08:08:41;2.50;;;2.30;;
10389;SDS011;5241;47.830;12.972;2023-05-07T08:11:06;2.00;;;1.80;;
10389;SDS011;5241;47.830;12.972;2023-05-07T08:13:32;3.17;;;1.97;;
10389;SDS011;5241;47.830;12.972;2023-05-07T08:15:57;2.83;;;1.90;;
10389;SDS011;5241;47.830;12.972;2023-05-07T08:18:23;2.83;;;1.80;;
10389;SDS011;5241;47.830;12.972;2023-05-07T08:20:50;2.20;;;1.60;;
10389;SDS011;5241;47.830;12.972;2023-05-07T08:23:16;2.57;;;1.23;;
10389;SDS011;5241;47.830;12.972;2023-05-07T08:25:41;2.20;;;1.40;;
10389;SDS011;5241;47.830;12.972;2023-05-07T08:28:10;2.57;;;1.30;;
10389;SDS011;5241;47.830;12.972;2023-05-07T08:30:35;2.80;;;1.53;;
10389;SDS011;5241;47.830;12.972;2023-05-07T08:33:01;1.57;;;1.47;;
10389;SDS011;5241;47.830;12.972;2023-05-07T08:35:26;2.23;;;1.63;;
10389;SDS011;5241;47.830;12.972;2023-05-07T08:37:53;2.17;;;1.80;;
10389;SDS011;5241;47.830;12.972;2023-05-07T08:40:19;3.47;;;3.20;;
10389;SDS011;5241;47.830;12.972;2023-05-07T08:42:48;2.17;;;1.60;;
10389;SDS011;5241;47.830;12.972;2023-05-07T08:45:16;2.93;;;1.80;;
10389;SDS011;5241;47.830;12.972;2023-05-07T08:47:44;1.67;;;1.50;;
10389;SDS011;5241;47.830;12.972;2023-05-07T08:50:12;2.07;;;1.63;;
10389;SDS011;5241;47.830;12.972;2023-05-07T08:52:41;3.87;;;1.80;;
10389;SDS011;5241;47.830;12.972;2023-05-07T08:55:07;3.10;;;1.60;;
10389;SDS011;5241;47.830;12.972;2023-05-07T08:57:34;1.80;;;1.60;;
10389;SDS011;5241;47.830;12.972;2023-05-07T09:00:00;2.53;;;1.70;;
10389;SDS011;5241;47.830;12.972;2023-05-07T09:02:27;1.97;;;1.73;;
10389;SDS011;5241;47.830;12.972;2023-05-07T09:04:53;2.57;;;1.77;;
10389;SDS011;5241;47.830;12.972;2023-05-07T09:07:19;2.10;;;1.90;;
10389;SDS011;5241;47.830;12.972;2023-05-07T09:09:45;1.77;;;1.67;;
10389;SDS011;5241;47.830;12.972;2023-05-07T09:12:11;4.43;;;1.90;;
10389;SDS011;5241;47.830;12.972;2023-05-07T09:14:37;2.10;;;1.77;;
10389;SDS011;5241;47.830;12.972;2023-05-07T09:17:03;2.53;;;1.87;;
10389;SDS011;5241;47.830;12.972;2023-05-07T09:19:28;2.80;;;1.90;;
10389;SDS011;5241;47.830;12.972;2023-05-07T09:21:58;2.37;;;1.80;;
10389;SDS011;5241;47.830;12.972;2023-05-07T09:24:25;3.97;;;1.80;;
10389;SDS011;5241;47.830;12.972;2023-05-07T09:26:53;4.17;;;1.80;;
10389;SDS011;5241;47.830;12.972;2023-05-07T09:29:20;2.20;;;2.00;;
10389;SDS011;5241;47.830;12.972;2023-05-07T09:31:46;2.10;;;1.80;;
10389;SDS011;5241;47.830;12.972;2023-05-07T09:34:11;5.40;;;1.90;;
10389;SDS011;5241;47.830;12.972;2023-05-07T09:36:37;2.23;;;2.03;;
10389;SDS011;5241;47.830;12.972;2023-05-07T09:39:02;2.30;;;1.90;;
10389;SDS011;5241;47.830;12.972;2023-05-07T09:41:29;2.20;;;2.00;;
10389;SDS011;5241;47.830;12.972;2023-05-07T09:43:57;2.40;;;2.20;;
10389;SDS011;5241;47.830;12.972;2023-05-07T09:46:25;3.00;;;2.47;;
10389;SDS011;5241;47.830;12.972;2023-05-07T09:48:55;2.03;;;1.93;;
10389;SDS011;5241;47.830;12.972;2023-05-07T09:54:03;2.13;;;1.93;;
10389;SDS011;5241;47.830;12.972;2023-05-07T09:56:30;3.13;;;2.30;;
10389;SDS011;5241;47.830;12.972;2023-05-07T09:58:57;2.67;;;2.37;;
10389;SDS011;5241;47.830;12.972;2023-05-07T10:01:25;3.60;;;2.20;;
10389;SDS011;5241;47.830;12.972;2023-05-07T10:03:52;2.60;;;2.30;;
10389;SDS011;5241;47.830;12.972;2023-05-07T10:06:18;2.67;;;2.47;;
10389;SDS011;5241;47.830;12.972;2023-05-07T10:08:45;3.57;;;3.13;;
10389;SDS011;5241;47.830;12.972;2023-05-07T10:11:10;2.60;;;2.40;;
10389;SDS011;5241;47.830;12.972;2023-05-07T10:13:36;3.37;;;2.43;;
10389;SDS011;5241;47.830;12.972;2023-05-07T10:16:03;3.40;;;3.10;;
10389;SDS011;5241;47.830;12.972;2023-05-07T10:18:30;3.50;;;3.20;;
10389;SDS011;5241;47.830;12.972;2023-05-07T10:23:33;3.37;;;2.60;;
10389;SDS011;5241;47.830;12.972;2023-05-07T10:26:00;4.97;;;2.60;;
10389;SDS011;5241;47.830;12.972;2023-05-07T10:28:29;2.73;;;2.53;;
10389;SDS011;5241;47.830;12.972;2023-05-07T10:33:46;3.70;;;3.40;;
10389;SDS011;5241;47.830;12.972;2023-05-07T10:36:16;4.07;;;3.40;;
10389;SDS011;5241;47.830;12.972;2023-05-07T10:38:42;2.90;;;2.60;;
10389;SDS011;5241;47.830;12.972;2023-05-07T10:41:07;3.37;;;3.07;;
10389;SDS011;5241;47.830;12.972;2023-05-07T10:43:43;3.20;;;2.50;;
10389;SDS011;5241;47.830;12.972;2023-05-07T10:46:19;2.90;;;2.50;;
10389;SDS011;5241;47.830;12.972;2023-05-07T10:51:26;4.07;;;2.87;;
10389;SDS011;5241;47.830;12.972;2023-05-07T10:56:37;3.10;;;2.57;;
10389;SDS011;5241;47.830;12.972;2023-05-07T11:02:02;2.97;;;2.50;;
10389;SDS011;5241;47.830;12.972;2023-05-07T11:04:28;4.13;;;2.33;;
10389;SDS011;5241;47.830;12.972;2023-05-07T11:15:10;3.17;;;2.17;;
10389;SDS011;5241;47.830;12.972;2023-05-07T11:17:52;1.90;;;1.60;;
10389;SDS011;5241;47.830;12.972;2023-05-07T11:26:03;2.53;;;1.93;;
10389;SDS011;5241;47.830;12.972;2023-05-07T11:28:29;2.70;;;1.77;;
10389;SDS011;5241;47.830;12.972;2023-05-07T11:30:56;3.27;;;2.00;;
10389;SDS011;5241;47.830;12.972;2023-05-07T11:33:22;2.60;;;1.97;;
10389;SDS011;5241;47.830;12.972;2023-05-07T11:35:50;2.23;;;2.00;;
10389;SDS011;5241;47.830;12.972;2023-05-07T11:38:18;2.43;;;2.00;;
10389;SDS011;5241;47.830;12.972;2023-05-07T11:40:50;2.27;;;1.80;;
10389;SDS011;5241;47.830;12.972;2023-05-07T11:43:17;3.37;;;2.10;;
10389;SDS011;5241;47.830;12.972;2023-05-07T11:45:42;2.67;;;2.00;;
10389;SDS011;5241;47.830;12.972;2023-05-07T11:48:09;1.90;;;1.80;;
10389;SDS011;5241;47.830;12.972;2023-05-07T11:50:35;2.07;;;1.90;;
10389;SDS011;5241;47.830;12.972;2023-05-07T11:53:07;3.63;;;1.80;;
10389;SDS011;5241;47.830;12.972;2023-05-07T11:55:32;3.60;;;1.90;;
10389;SDS011;5241;47.830;12.972;2023-05-07T11:57:58;1.87;;;1.60;;
10389;SDS011;5241;47.830;12.972;2023-05-07T12:00:24;1.93;;;1.70;;
10389;SDS011;5241;47.830;12.972;2023-05-07T12:02:49;2.30;;;1.60;;
10389;SDS011;5241;47.830;12.972;2023-05-07T12:05:15;1.37;;;1.27;;
10389;SDS011;5241;47.830;12.972;2023-05-07T12:07:41;1.70;;;1.60;;
10389;SDS011;5241;47.830;12.972;2023-05-07T12:10:07;1.60;;;1.50;;
10389;SDS011;5241;47.830;12.972;2023-05-07T12:12:39;3.20;;;2.00;;
10389;SDS011;5241;47.830;12.972;2023-05-07T12:15:10;1.90;;;1.80;;
10389;SDS011;5241;47.830;12.972;2023-05-07T12:17:36;3.00;;;1.77;;
10389;SDS011;5241;47.830;12.972;2023-05-07T12:20:02;2.27;;;1.80;;
10389;SDS011;5241;47.830;12.972;2023-05-07T12:22:28;2.27;;;1.63;;
10389;SDS011;5241;47.830;12.972;2023-05-07T12:24:57;2.67;;;2.47;;
10389;SDS011;5241;47.830;12.972;2023-05-07T12:27:23;2.93;;;2.60;;
10389;SDS011;5241;47.830;12.972;2023-05-07T12:29:50;2.50;;;1.80;;
10389;SDS011;5241;47.830;12.972;2023-05-07T12:32:19;2.37;;;2.07;;
10389;SDS011;5241;47.830;12.972;2023-05-07T12:34:46;3.83;;;1.50;;
10389;SDS011;5241;47.830;12.972;2023-05-07T12:37:14;2.93;;;1.57;;
10389;SDS011;5241;47.830;12.972;2023-05-07T12:39:49;1.97;;;1.63;;
10389;SDS011;5241;47.830;12.972;2023-05-07T12:42:16;2.00;;;1.80;;
10389;SDS011;5241;47.830;12.972;2023-05-07T12:44:45;1.77;;;1.60;;
10389;SDS011;5241;47.830;12.972;2023-05-07T12:47:11;3.13;;;1.70;;
10389;SDS011;5241;47.830;12.972;2023-05-07T12:49:37;2.87;;;1.73;;
10389;SDS011;5241;47.830;12.972;2023-05-07T12:52:03;2.47;;;1.80;;
10389;SDS011;5241;47.830;12.972;2023-05-07T12:54:31;2.07;;;1.87;;
10389;SDS011;5241;47.830;12.972;2023-05-07T12:57:01;2.10;;;1.80;;
10389;SDS011;5241;47.830;12.972;2023-05-07T12:59:34;2.33;;;1.67;;
10389;SDS011;5241;47.830;12.972;2023-05-07T13:02:02;2.23;;;1.70;;
10389;SDS011;5241;47.830;12.972;2023-05-07T13:04:28;1.97;;;1.77;;
10389;SDS011;5241;47.830;12.972;2023-05-07T13:06:53;2.10;;;1.80;;
10389;SDS011;5241;47.830;12.972;2023-05-07T13:09:19;2.07;;;1.73;;
10389;SDS011;5241;47.830;12.972;2023-05-07T13:11:45;4.80;;;2.00;;
10389;SDS011;5241;47.830;12.972;2023-05-07T13:14:10;2.20;;;2.00;;
10389;SDS011;5241;47.830;12.972;2023-05-07T13:16:36;2.60;;;2.20;;
10389;SDS011;5241;47.830;12.972;2023-05-07T13:19:02;2.20;;;2.00;;
10389;SDS011;5241;47.830;12.972;2023-05-07T13:21:27;2.03;;;1.83;;
10389;SDS011;5241;47.830;12.972;2023-05-07T13:23:53;2.50;;;2.30;;
10389;SDS011;5241;47.830;12.972;2023-05-07T13:26:18;2.80;;;2.07;;
10389;SDS011;5241;47.830;12.972;2023-05-07T13:28:45;3.63;;;2.13;;
10389;SDS011;5241;47.830;12.972;2023-05-07T13:31:11;2.17;;;1.97;;
10389;SDS011;5241;47.830;12.972;2023-05-07T13:33:36;2.30;;;2.10;;
10389;SDS011;5241;47.830;12.972;2023-05-07T13:36:02;2.73;;;2.40;;
10389;SDS011;5241;47.830;12.972;2023-05-07T13:38:29;2.80;;;2.43;;
10389;SDS011;5241;47.830;12.972;2023-05-07T13:40:55;2.97;;;2.20;;
10389;SDS011;5241;47.830;12.972;2023-05-07T13:43:20;3.47;;;2.47;;
10389;SDS011;5241;47.830;12.972;2023-05-07T13:45:46;2.37;;;2.17;;
10389;SDS011;5241;47.830;12.972;2023-05-07T13:48:12;2.83;;;2.20;;
10389;SDS011;5241;47.830;12.972;2023-05-07T13:50:37;3.97;;;2.50;;
10389;SDS011;5241;47.830;12.972;2023-05-07T13:53:03;2.53;;;2.30;;
10389;SDS011;5241;47.830;12.972;2023-05-07T13:55:28;2.67;;;2.40;;
10389;SDS011;5241;47.830;12.972;2023-05-07T13:57:55;2.80;;;2.23;;
10389;SDS011;5241;47.830;12.972;2023-05-07T14:00:22;3.03;;;2.23;;
10389;SDS011;5241;47.830;12.972;2023-05-07T14:02:48;3.83;;;2.40;;
10389;SDS011;5241;47.830;12.972;2023-05-07T14:05:13;3.53;;;2.23;;
10389;SDS011;5241;47.830;12.972;2023-05-07T14:07:39;2.83;;;2.53;;
10389;SDS011;5241;47.830;12.972;2023-05-07T14:10:05;2.33;;;2.10;;
10389;SDS011;5241;47.830;12.972;2023-05-07T14:12:31;2.50;;;2.30;;
10389;SDS011;5241;47.830;12.972;2023-05-07T14:14:57;4.40;;;2.30;;
10389;SDS011;5241;47.830;12.972;2023-05-07T14:17:23;3.07;;;2.60;;
10389;SDS011;5241;47.830;12.972;2023-05-07T14:19:51;2.90;;;2.20;;
10389;SDS011;5241;47.830;12.972;2023-05-07T14:22:19;2.70;;;2.50;;
10389;SDS011;5241;47.830;12.972;2023-05-07T14:24:45;2.77;;;2.07;;
10389;SDS011;5241;47.830;12.972;2023-05-07T14:27:11;2.63;;;2.30;;
10389;SDS011;5241;47.830;12.972;2023-05-07T14:29:36;2.73;;;2.23;;
10389;SDS011;5241;47.830;12.972;2023-05-07T14:32:02;2.20;;;2.00;;
10389;SDS011;5241;47.830;12.972;2023-05-07T14:34:28;2.93;;;2.30;;
10389;SDS011;5241;47.830;12.972;2023-05-07T14:36:54;3.80;;;2.30;;
10389;SDS011;5241;47.830;12.972;2023-05-07T14:39:20;3.73;;;2.50;;
10389;SDS011;5241;47.830;12.972;2023-05-07T14:41:46;2.40;;;2.20;;
10389;SDS011;5241;47.830;12.972;2023-05-07T14:44:12;3.10;;;2.30;;
10389;SDS011;5241;47.830;12.972;2023-05-07T14:46:37;2.37;;;2.17;;
10389;SDS011;5241;47.830;12.972;2023-05-07T14:49:03;3.23;;;2.60;;
10389;SDS011;5241;47.830;12.972;2023-05-07T14:51:29;3.07;;;2.73;;
10389;SDS011;5241;47.830;12.972;2023-05-07T14:53:55;3.10;;;2.40;;
10389;SDS011;5241;47.830;12.972;2023-05-07T14:56:21;2.87;;;2.40;;
10389;SDS011;5241;47.830;12.972;2023-05-07T14:58:47;3.43;;;2.20;;
10389;SDS011;5241;47.830;12.972;2023-05-07T15:01:13;2.90;;;2.57;;
10389;SDS011;5241;47.830;12.972;2023-05-07T15:03:39;3.00;;;2.20;;
10389;SDS011;5241;47.830;12.972;2023-05-07T15:06:05;4.13;;;2.83;;
10389;SDS011;5241;47.830;12.972;2023-05-07T15:08:30;2.60;;;2.40;;
10389;SDS011;5241;47.830;12.972;2023-05-07T15:10:56;3.10;;;2.50;;
10389;SDS011;5241;47.830;12.972;2023-05-07T15:13:21;3.27;;;2.97;;